createdAt,value
2022-10-06T00:01:14.397Z,0.98
2022-10-06T00:03:40.392Z,0.90
2022-10-06T00:06:07.213Z,1.20
2022-10-06T00:08:35.413Z,1.13
2022-10-06T00:11:01.443Z,1.30
2022-10-06T00:13:29.089Z,1.40
2022-10-06T00:15:55.171Z,1.20
2022-10-06T00:18:21.365Z,1.17
2022-10-06T00:20:57.967Z,0.70
2022-10-06T00:23:24.389Z,0.88
2022-10-06T00:25:51.002Z,0.68
2022-10-06T00:28:16.884Z,0.82
2022-10-06T00:30:43.081Z,0.95
2022-10-06T00:33:16.693Z,0.60
2022-10-06T00:35:43.138Z,0.60
2022-10-06T00:38:13.937Z,0.80
2022-10-06T00:40:48.426Z,0.70
2022-10-06T00:43:38.598Z,0.60
2022-10-06T00:46:10.968Z,0.70
2022-10-06T00:48:37.801Z,0.50
2022-10-06T00:51:04.504Z,1.08
2022-10-06T00:53:31.150Z,1.17
2022-10-06T00:55:57.309Z,0.90
2022-10-06T00:58:24.104Z,0.95
2022-10-06T01:00:54.500Z,1.17
2022-10-06T01:03:30.193Z,0.85
2022-10-06T01:05:57.295Z,0.95
2022-10-06T01:08:23.289Z,1.50
2022-10-06T01:10:49.158Z,0.90
2022-10-06T01:13:17.652Z,0.75
2022-10-06T01:16:04.964Z,1.33
2022-10-06T01:18:32.003Z,0.80
2022-10-06T01:21:14.615Z,0.90
2022-10-06T01:23:40.874Z,1.60
2022-10-06T01:26:10.018Z,0.90
2022-10-06T01:28:37.996Z,1.45
2022-10-06T01:31:04.331Z,1.00
2022-10-06T01:33:30.248Z,1.30
2022-10-06T01:35:56.266Z,1.08
2022-10-06T01:38:22.205Z,1.58
2022-10-06T01:40:50.454Z,0.88
2022-10-06T01:43:16.202Z,1.00
2022-10-06T01:45:41.933Z,1.25
2022-10-06T01:48:07.855Z,1.60
2022-10-06T01:50:33.813Z,1.20
2022-10-06T01:52:59.561Z,1.67
2022-10-06T01:55:26.167Z,1.83
2022-10-06T01:57:52.218Z,2.17
2022-10-06T02:00:18.686Z,1.65
2022-10-06T02:02:44.523Z,1.77
2022-10-06T02:05:11.416Z,2.95
2022-10-06T02:07:37.968Z,1.58
2022-10-06T02:10:05.472Z,1.80
2022-10-06T02:12:32.117Z,2.75
2022-10-06T02:14:58.531Z,3.80
2022-10-06T02:17:24.551Z,3.63
2022-10-06T02:19:50.355Z,4.25
2022-10-06T02:22:16.472Z,4.47
2022-10-06T02:24:42.401Z,4.40
2022-10-06T02:27:08.231Z,4.43
2022-10-06T02:29:34.079Z,4.78
2022-10-06T02:32:00.201Z,4.85
2022-10-06T02:34:26.527Z,4.55
2022-10-06T02:36:52.315Z,4.80
2022-10-06T02:39:18.067Z,4.65
2022-10-06T02:41:43.796Z,5.25
2022-10-06T02:44:09.575Z,4.75
2022-10-06T02:46:35.525Z,4.20
2022-10-06T02:49:01.318Z,4.22
2022-10-06T02:51:27.133Z,3.60
2022-10-06T02:53:53.566Z,3.28
2022-10-06T02:56:24.536Z,2.63
2022-10-06T02:58:51.939Z,2.50
2022-10-06T03:01:20.688Z,2.80
2022-10-06T03:03:46.891Z,3.08
2022-10-06T03:06:21.038Z,2.20
2022-10-06T03:09:00.302Z,1.90
2022-10-06T03:11:31.602Z,2.20
2022-10-06T03:13:58.233Z,2.13
2022-10-06T03:16:27.112Z,2.65
2022-10-06T03:18:54.658Z,3.40
2022-10-06T03:21:22.854Z,3.17
2022-10-06T03:23:50.799Z,3.65
2022-10-06T03:26:19.586Z,5.10
2022-10-06T03:28:46.060Z,4.00
2022-10-06T03:31:13.238Z,4.07
2022-10-06T03:33:39.007Z,4.10
2022-10-06T03:36:09.296Z,4.80
2022-10-06T03:38:35.947Z,5.70
2022-10-06T03:41:26.514Z,5.53
2022-10-06T03:43:53.868Z,5.43
2022-10-06T03:46:22.699Z,6.72
2022-10-06T03:48:51.084Z,6.53
2022-10-06T03:51:22.763Z,5.80
2022-10-06T03:53:51.170Z,6.30
2022-10-06T03:56:29.157Z,4.70
2022-10-06T03:59:16.729Z,4.40
2022-10-06T04:01:45.109Z,3.63
2022-10-06T04:04:11.505Z,3.97
2022-10-06T04:06:39.879Z,3.08
2022-10-06T04:09:11.321Z,2.63
2022-10-06T04:11:41.296Z,3.30
2022-10-06T04:14:09.759Z,2.10
2022-10-06T04:16:38.424Z,3.17
2022-10-06T04:19:06.543Z,5.18
2022-10-06T04:21:35.858Z,3.17
2022-10-06T04:24:02.258Z,2.50
2022-10-06T04:26:31.866Z,3.22
2022-10-06T04:28:58.091Z,3.92
2022-10-06T04:31:30.734Z,3.53
2022-10-06T04:33:58.811Z,3.60
2022-10-06T04:36:27.563Z,4.15
2022-10-06T04:38:57.466Z,5.05
2022-10-06T04:41:28.222Z,3.60
2022-10-06T04:43:54.762Z,3.33
2022-10-06T04:46:42.101Z,3.78
2022-10-06T04:49:08.620Z,3.25
2022-10-06T04:51:34.446Z,3.45
2022-10-06T04:54:01.797Z,3.72
2022-10-06T04:56:31.068Z,3.80
2022-10-06T04:58:58.042Z,3.97
2022-10-06T05:01:32.448Z,4.80
2022-10-06T05:04:00.292Z,4.28
2022-10-06T05:06:28.845Z,4.30
2022-10-06T05:08:57.724Z,4.80
2022-10-06T05:11:26.002Z,4.18
2022-10-06T05:13:56.847Z,4.65
2022-10-06T05:16:24.374Z,4.82
2022-10-06T05:18:50.152Z,4.35
2022-10-06T05:21:19.311Z,4.43
2022-10-06T05:23:45.411Z,5.53
2022-10-06T05:26:17.510Z,5.03
2022-10-06T05:28:43.874Z,4.95
2022-10-06T05:31:11.589Z,5.97
2022-10-06T05:33:37.552Z,5.57
2022-10-06T05:36:10.351Z,5.57
2022-10-06T05:38:36.229Z,4.95
2022-10-06T05:41:12.742Z,4.88
2022-10-06T05:43:39.394Z,6.43
2022-10-06T05:46:09.630Z,5.63
2022-10-06T05:48:35.582Z,6.30
2022-10-06T05:51:07.326Z,6.70
2022-10-06T05:53:34.960Z,6.25
2022-10-06T05:56:08.616Z,5.90
2022-10-06T05:58:36.697Z,6.28
2022-10-06T06:01:17.648Z,6.18
2022-10-06T06:03:48.291Z,5.32
2022-10-06T06:06:22.467Z,4.70
2022-10-06T06:08:52.588Z,4.90
2022-10-06T06:11:18.821Z,5.07
2022-10-06T06:13:44.676Z,6.15
2022-10-06T06:16:14.809Z,5.15
2022-10-06T06:18:41.061Z,4.40
2022-10-06T06:21:08.754Z,4.60
2022-10-06T06:23:37.371Z,4.80
2022-10-06T06:26:08.619Z,4.00
2022-10-06T06:28:36.259Z,4.60
2022-10-06T06:31:06.415Z,3.38
2022-10-06T06:33:33.663Z,3.08
2022-10-06T06:36:02.477Z,3.05
2022-10-06T06:38:31.258Z,2.72
2022-10-06T06:40:57.294Z,3.50
2022-10-06T06:43:23.021Z,2.58
2022-10-06T06:45:48.848Z,2.95
2022-10-06T06:48:15.253Z,2.60
2022-10-06T06:50:42.321Z,2.80
2022-10-06T06:53:08.259Z,2.42
2022-10-06T06:55:35.120Z,3.53
2022-10-06T06:58:00.900Z,3.45
2022-10-06T07:00:26.700Z,3.13
2022-10-06T07:02:55.489Z,2.10
2022-10-06T07:05:21.876Z,2.90
2022-10-06T07:07:47.708Z,2.63
2022-10-06T07:10:13.576Z,2.78
2022-10-06T07:12:39.301Z,2.28
2022-10-06T07:15:24.587Z,3.03
2022-10-06T07:18:08.658Z,3.08
2022-10-06T07:20:53.016Z,2.92
2022-10-06T07:23:38.936Z,3.00
2022-10-06T07:30:59.848Z,3.25
2022-10-06T07:33:31.573Z,2.67
2022-10-06T07:35:57.367Z,3.15
2022-10-06T07:38:26.812Z,2.55
2022-10-06T07:43:42.517Z,3.17
2022-10-06T07:46:11.491Z,3.33
2022-10-06T07:48:39.946Z,3.17
2022-10-06T07:51:16.652Z,3.17
2022-10-06T07:53:46.024Z,2.80
2022-10-06T07:56:15.001Z,4.65
2022-10-06T07:58:41.142Z,3.42
2022-10-06T08:01:09.417Z,3.72
2022-10-06T08:03:39.867Z,3.83
2022-10-06T08:06:06.311Z,3.70
2022-10-06T08:08:37.142Z,3.88
2022-10-06T08:11:04.554Z,4.25
2022-10-06T08:13:33.334Z,3.58
2022-10-06T08:16:06.895Z,3.30
2022-10-06T08:18:48.225Z,4.47
2022-10-06T08:21:20.145Z,3.83
2022-10-06T08:23:47.630Z,3.85
2022-10-06T08:26:14.470Z,3.40
2022-10-06T08:28:43.927Z,4.13
2022-10-06T08:31:14.810Z,3.10
2022-10-06T08:33:41.938Z,4.13
2022-10-06T08:36:19.013Z,4.78
2022-10-06T08:38:49.560Z,2.92
2022-10-06T08:41:39.674Z,3.33
2022-10-06T08:44:20.228Z,4.28
2022-10-06T08:47:03.564Z,4.40
2022-10-06T08:49:36.213Z,4.63
2022-10-06T08:52:17.069Z,3.47
2022-10-06T08:55:13.567Z,4.05
2022-10-06T08:57:46.474Z,3.22
2022-10-06T09:00:19.485Z,3.65
2022-10-06T09:02:50.139Z,3.40
2022-10-06T09:05:24.642Z,4.45
2022-10-06T09:08:12.090Z,3.53
2022-10-06T09:11:01.739Z,4.38
2022-10-06T09:13:39.069Z,3.20
2022-10-06T09:16:13.544Z,3.38
2022-10-06T09:19:08.763Z,3.42
2022-10-06T09:22:05.554Z,4.32
2022-10-06T09:24:38.007Z,3.95
2022-10-06T09:27:22.553Z,2.97
2022-10-06T09:29:49.634Z,2.92
2022-10-06T09:32:17.898Z,3.15
2022-10-06T09:34:49.954Z,2.90
2022-10-06T09:37:16.045Z,3.60
2022-10-06T09:39:50.187Z,3.40
2022-10-06T09:42:21.245Z,3.08
2022-10-06T09:44:56.601Z,3.38
2022-10-06T09:47:32.558Z,3.28
2022-10-06T09:50:24.059Z,3.58
2022-10-06T09:53:05.004Z,3.20
2022-10-06T09:55:40.851Z,3.20
2022-10-06T09:58:22.603Z,3.42
2022-10-06T10:00:54.548Z,3.38
2022-10-06T10:03:21.877Z,3.00
2022-10-06T10:05:56.026Z,3.20
2022-10-06T10:08:24.441Z,2.58
2022-10-06T10:11:29.555Z,2.90
2022-10-06T10:13:59.628Z,2.92
2022-10-06T10:16:33.658Z,3.15
2022-10-06T10:19:01.475Z,2.20
2022-10-06T10:21:34.408Z,2.55
2022-10-06T10:24:02.761Z,2.70
2022-10-06T10:26:38.235Z,2.10
2022-10-06T10:29:40.776Z,1.80
2022-10-06T10:32:26.723Z,2.50
2022-10-06T10:35:02.609Z,2.13
2022-10-06T10:37:51.330Z,2.03
2022-10-06T10:40:47.319Z,2.10
2022-10-06T10:43:28.714Z,1.83
2022-10-06T10:46:16.130Z,2.53
2022-10-06T10:49:00.680Z,1.73
2022-10-06T10:51:32.200Z,1.63
2022-10-06T10:54:09.637Z,1.52
2022-10-06T10:56:35.720Z,2.13
2022-10-06T10:59:26.484Z,1.48
2022-10-06T11:02:02.277Z,1.80
2022-10-06T11:04:28.235Z,1.48
2022-10-06T11:07:25.737Z,2.13
2022-10-06T11:10:06.445Z,2.05
2022-10-06T11:12:38.279Z,1.77
2022-10-06T11:15:23.903Z,2.15
2022-10-06T11:20:51.315Z,1.98
2022-10-06T11:23:27.951Z,1.70
2022-10-06T11:26:06.494Z,1.63
2022-10-06T11:28:59.921Z,1.48
2022-10-06T11:31:53.816Z,1.58
2022-10-06T11:34:19.920Z,1.52
2022-10-06T11:36:52.556Z,1.75
2022-10-06T11:40:00.430Z,1.67
2022-10-06T11:42:47.718Z,1.58
2022-10-06T11:45:15.672Z,1.63
2022-10-06T11:48:11.098Z,1.42
2022-10-06T11:50:41.982Z,1.33
2022-10-06T11:53:38.491Z,1.40
2022-10-06T11:56:16.047Z,1.75
2022-10-06T11:58:50.625Z,2.10
2022-10-06T12:01:35.431Z,2.10
2022-10-06T12:06:52.326Z,1.85
2022-10-06T12:09:37.488Z,1.70
2022-10-06T12:12:18.411Z,1.42
2022-10-06T12:20:52.603Z,1.75
2022-10-06T12:23:24.612Z,1.80
2022-10-06T12:26:20.457Z,1.63
2022-10-06T12:29:13.870Z,1.40
2022-10-06T12:31:54.302Z,1.40
2022-10-06T12:34:52.988Z,1.63
2022-10-06T12:37:43.259Z,1.65
2022-10-06T12:40:42.063Z,1.50
2022-10-06T12:43:14.167Z,1.52
2022-10-06T12:45:46.844Z,1.73
2022-10-06T12:48:21.398Z,1.63
2022-10-06T12:50:50.764Z,1.80
2022-10-06T12:53:22.995Z,1.30
2022-10-06T12:56:01.981Z,1.27
2022-10-06T12:58:30.320Z,1.58
2022-10-06T13:01:04.607Z,1.20
2022-10-06T13:03:30.699Z,1.73
2022-10-06T13:06:07.865Z,1.50
2022-10-06T13:08:38.692Z,1.40
2022-10-06T13:11:11.296Z,2.08
2022-10-06T13:13:44.804Z,1.83
2022-10-06T13:16:10.980Z,1.50
2022-10-06T13:18:36.840Z,1.55
2022-10-06T13:21:02.795Z,1.60
2022-10-06T13:23:33.145Z,1.02
2022-10-06T13:26:06.226Z,1.20
2022-10-06T13:28:43.887Z,1.40
2022-10-06T13:31:23.065Z,1.65
2022-10-06T13:34:00.231Z,1.50
2022-10-06T13:36:32.104Z,1.67
2022-10-06T13:38:58.227Z,1.98
2022-10-06T13:41:30.167Z,1.65
2022-10-06T13:44:18.596Z,1.23
2022-10-06T13:47:07.720Z,1.70
2022-10-06T13:49:50.375Z,1.45
2022-10-06T13:52:20.964Z,1.90
2022-10-06T13:54:52.171Z,1.55
2022-10-06T13:57:42.836Z,1.73
2022-10-06T14:00:14.437Z,1.63
2022-10-06T14:02:42.107Z,1.80
2022-10-06T14:05:25.639Z,1.50
2022-10-06T14:07:53.686Z,2.03
2022-10-06T14:10:27.362Z,2.05
2022-10-06T14:12:53.344Z,1.85
2022-10-06T14:15:22.213Z,1.73
2022-10-06T14:18:16.959Z,1.60
2022-10-06T14:20:48.206Z,1.98
2022-10-06T14:23:48.586Z,2.00
2022-10-06T14:26:16.848Z,1.25
2022-10-06T14:28:48.793Z,1.90
2022-10-06T14:31:15.077Z,2.38
2022-10-06T14:33:41.222Z,2.13
2022-10-06T14:36:15.307Z,2.33
2022-10-06T14:38:41.064Z,2.03
2022-10-06T14:41:07.270Z,2.65
2022-10-06T14:43:33.067Z,1.85
2022-10-06T14:46:03.976Z,1.98
2022-10-06T14:48:32.126Z,2.33
2022-10-06T14:51:02.367Z,1.80
2022-10-06T14:53:28.409Z,1.98
2022-10-06T14:55:54.231Z,1.63
2022-10-06T14:58:19.975Z,1.65
2022-10-06T15:00:45.796Z,2.05
2022-10-06T15:03:11.723Z,1.65
2022-10-06T15:05:57.674Z,1.48
2022-10-06T15:08:23.584Z,1.65
2022-10-06T15:10:52.648Z,1.50
2022-10-06T15:13:18.859Z,1.75
2022-10-06T15:15:45.121Z,2.05
2022-10-06T15:18:11.571Z,1.88
2022-10-06T15:20:37.494Z,1.92
2022-10-06T15:23:03.255Z,2.10
2022-10-06T15:25:54.890Z,1.58
2022-10-06T15:28:39.014Z,1.75
2022-10-06T15:31:05.745Z,2.22
2022-10-06T15:33:31.588Z,1.98
2022-10-06T15:36:18.196Z,2.22
2022-10-06T15:38:44.163Z,2.15
2022-10-06T15:41:10.629Z,1.98
2022-10-06T15:43:55.711Z,1.88
2022-10-06T15:46:35.238Z,1.73
2022-10-06T15:49:03.809Z,1.98
2022-10-06T15:51:34.069Z,1.65
2022-10-06T15:54:00.414Z,1.90
2022-10-06T15:56:28.059Z,1.88
2022-10-06T15:58:54.631Z,1.48
2022-10-06T16:01:33.645Z,1.63
2022-10-06T16:04:08.956Z,1.70
2022-10-06T16:06:53.602Z,1.40
2022-10-06T16:09:19.675Z,1.63
2022-10-06T16:11:46.574Z,1.40
2022-10-06T16:14:13.433Z,1.85
2022-10-06T16:16:43.496Z,1.98
2022-10-06T16:19:10.110Z,2.70
2022-10-06T16:21:36.028Z,3.25
2022-10-06T16:24:01.877Z,5.38
2022-10-06T16:26:27.925Z,5.25
2022-10-06T16:28:54.111Z,6.13
2022-10-06T16:31:20.918Z,3.70
2022-10-06T16:33:47.315Z,3.65
2022-10-06T16:36:15.042Z,3.25
2022-10-06T16:38:41.524Z,2.55
2022-10-06T16:41:07.648Z,2.50
2022-10-06T16:43:34.739Z,2.50
2022-10-06T16:46:03.478Z,1.83
2022-10-06T16:48:37.540Z,2.20
2022-10-06T16:51:07.584Z,1.98
2022-10-06T16:54:03.604Z,2.10
2022-10-06T16:56:31.936Z,2.28
2022-10-06T16:58:59.667Z,2.53
2022-10-06T17:01:28.163Z,2.75
2022-10-06T17:04:02.965Z,4.70
2022-10-06T17:06:30.780Z,4.88
2022-10-06T17:08:56.875Z,4.65
2022-10-06T17:11:24.619Z,3.92
2022-10-06T17:13:57.029Z,2.97
2022-10-06T17:16:28.773Z,3.00
2022-10-06T17:18:55.646Z,2.88
2022-10-06T17:21:44.147Z,4.00
2022-10-06T17:24:07.731Z,2.83
2022-10-06T17:26:36.040Z,2.38
2022-10-06T17:29:05.224Z,2.17
2022-10-06T17:31:34.570Z,3.00
2022-10-06T17:34:03.113Z,2.10
2022-10-06T17:36:28.937Z,1.90
2022-10-06T17:39:00.722Z,1.92
2022-10-06T17:41:32.558Z,2.35
2022-10-06T17:44:02.432Z,1.95
2022-10-06T17:46:30.602Z,2.78
2022-10-06T17:48:57.223Z,2.72
2022-10-06T17:51:26.188Z,2.33
2022-10-06T17:53:55.694Z,2.45
2022-10-06T17:56:24.509Z,2.90
2022-10-06T17:58:58.818Z,2.38
2022-10-06T18:01:28.185Z,2.17
2022-10-06T18:03:56.258Z,2.20
2022-10-06T18:06:26.168Z,2.28
2022-10-06T18:08:53.978Z,2.13
2022-10-06T18:11:42.420Z,2.55
2022-10-06T18:14:13.484Z,1.65
2022-10-06T18:16:44.496Z,1.50
2022-10-06T18:19:13.358Z,2.20
2022-10-06T18:21:41.161Z,1.50
2022-10-06T18:24:15.893Z,2.42
2022-10-06T18:26:47.377Z,2.33
2022-10-06T18:29:15.773Z,1.98
2022-10-06T18:31:42.181Z,2.30
2022-10-06T18:36:56.981Z,1.98
2022-10-06T18:39:22.852Z,1.50
2022-10-06T18:41:50.382Z,1.98
2022-10-06T18:44:36.233Z,1.92
2022-10-06T18:47:20.530Z,1.45
2022-10-06T18:49:46.424Z,3.17
2022-10-06T18:52:12.273Z,3.35
2022-10-06T18:54:38.493Z,2.40
2022-10-06T18:57:04.258Z,1.77
2022-10-06T18:59:30.668Z,3.22
2022-10-06T19:01:57.339Z,2.53
2022-10-06T19:04:23.329Z,1.90
2022-10-06T19:06:54.216Z,2.72
2022-10-06T19:09:22.038Z,2.45
2022-10-06T19:11:51.659Z,2.67
2022-10-06T19:14:34.151Z,2.33
2022-10-06T19:17:05.995Z,1.90
2022-10-06T19:19:33.421Z,2.05
2022-10-06T19:22:02.070Z,1.60
2022-10-06T19:24:39.510Z,2.75
2022-10-06T19:27:20.137Z,2.55
2022-10-06T19:29:53.844Z,2.38
2022-10-06T19:32:24.090Z,2.08
2022-10-06T19:34:50.081Z,1.88
2022-10-06T19:37:16.153Z,2.35
2022-10-06T19:39:44.116Z,1.63
2022-10-06T19:42:33.808Z,1.90
2022-10-06T19:44:59.575Z,2.10
2022-10-06T19:47:26.987Z,2.83
2022-10-06T19:49:56.133Z,2.33
2022-10-06T19:52:24.709Z,1.52
2022-10-06T19:54:50.516Z,2.42
2022-10-06T19:57:16.450Z,1.50
2022-10-06T19:59:42.303Z,2.25
2022-10-06T20:02:10.048Z,1.73
2022-10-06T20:04:36.326Z,2.22
2022-10-06T20:07:02.871Z,2.38
2022-10-06T20:09:32.194Z,1.65
2022-10-06T20:11:58.715Z,1.88
2022-10-06T20:14:25.701Z,2.05
2022-10-06T20:16:53.651Z,1.75
2022-10-06T20:19:20.225Z,1.80
2022-10-06T20:21:47.706Z,2.08
2022-10-06T20:24:21.699Z,2.13
2022-10-06T20:26:49.760Z,2.00
2022-10-06T20:29:18.595Z,2.10
2022-10-06T20:31:47.784Z,2.10
2022-10-06T20:34:16.368Z,2.45
2022-10-06T20:36:42.627Z,2.22
2022-10-06T20:39:31.256Z,1.83
2022-10-06T20:41:57.333Z,2.00
2022-10-06T20:44:23.185Z,2.25
2022-10-06T20:46:50.573Z,1.70
2022-10-06T20:49:17.806Z,2.03
2022-10-06T20:51:46.520Z,1.42
2022-10-06T20:54:13.689Z,1.75
2022-10-06T20:56:39.438Z,1.65
2022-10-06T20:59:08.682Z,2.30
2022-10-06T21:01:36.534Z,2.13
2022-10-06T21:04:03.233Z,2.45
2022-10-06T21:06:30.160Z,1.60
2022-10-06T21:08:58.076Z,1.80
2022-10-06T21:11:25.846Z,2.00
2022-10-06T21:13:52.975Z,1.77
2022-10-06T21:16:31.642Z,1.88
2022-10-06T21:19:02.956Z,1.80
2022-10-06T21:21:29.800Z,2.03
2022-10-06T21:23:55.611Z,1.80
2022-10-06T21:26:25.341Z,1.60
2022-10-06T21:28:52.048Z,1.65
2022-10-06T21:31:23.313Z,1.83
2022-10-06T21:33:50.839Z,2.30
2022-10-06T21:36:22.246Z,2.38
2022-10-06T21:38:50.821Z,1.55
2022-10-06T21:41:24.803Z,1.50
2022-10-06T21:43:59.922Z,1.40
2022-10-06T21:46:29.184Z,1.75
2022-10-06T21:48:56.978Z,2.22
2022-10-06T21:51:24.279Z,1.60
2022-10-06T21:53:51.887Z,1.75
2022-10-06T21:56:19.185Z,1.52
2022-10-06T21:58:52.112Z,2.10
2022-10-06T22:01:29.954Z,1.35
2022-10-06T22:03:57.904Z,2.22
2022-10-06T22:06:24.113Z,2.10
2022-10-06T22:08:50.220Z,1.88
2022-10-06T22:11:21.707Z,2.67
2022-10-06T22:13:50.050Z,2.10
2022-10-06T22:16:18.801Z,1.90
2022-10-06T22:18:45.475Z,1.90
2022-10-06T22:21:14.295Z,2.28
2022-10-06T22:23:42.300Z,2.45
2022-10-06T22:26:09.285Z,2.72
2022-10-06T22:28:36.050Z,2.63
2022-10-06T22:31:03.397Z,2.13
2022-10-06T22:33:30.103Z,2.35
2022-10-06T22:35:56.030Z,3.47
2022-10-06T22:38:21.777Z,1.88
2022-10-06T22:40:47.572Z,2.42
2022-10-06T22:43:13.303Z,1.90
2022-10-06T22:45:39.036Z,2.38
2022-10-06T22:48:04.771Z,2.30
2022-10-06T22:50:30.526Z,2.35
2022-10-06T22:52:56.458Z,2.95
2022-10-06T22:55:22.371Z,2.40
2022-10-06T22:57:48.108Z,2.05
2022-10-06T23:00:14.308Z,2.47
2022-10-06T23:02:40.081Z,2.60
2022-10-06T23:05:06.031Z,1.92
2022-10-06T23:07:32.049Z,2.38
2022-10-06T23:09:57.852Z,1.98
2022-10-06T23:12:23.592Z,2.00
2022-10-06T23:14:49.448Z,2.80
2022-10-06T23:17:15.210Z,2.90
2022-10-06T23:19:41.085Z,2.42
2022-10-06T23:22:06.842Z,1.60
2022-10-06T23:24:32.596Z,2.10
2022-10-06T23:27:03.458Z,2.22
2022-10-06T23:29:30.043Z,2.08
2022-10-06T23:31:56.116Z,2.13
2022-10-06T23:34:21.962Z,2.28
2022-10-06T23:36:47.677Z,2.38
2022-10-06T23:39:13.451Z,2.15
2022-10-06T23:41:40.838Z,1.67
2022-10-06T23:44:06.935Z,2.00
2022-10-06T23:46:32.711Z,1.90
2022-10-06T23:48:58.587Z,1.92
2022-10-06T23:51:24.370Z,2.28
2022-10-06T23:53:50.132Z,2.38
2022-10-06T23:56:18.083Z,2.05
2022-10-06T23:58:44.260Z,3.15
